createdAt,value
2018-03-28T00:00:57.018Z,0
2018-03-28T00:01:57.742Z,0
2018-03-28T00:02:58.532Z,0
2018-03-28T00:03:59.274Z,0
2018-03-28T00:05:00.009Z,0
2018-03-28T00:06:00.728Z,0
2018-03-28T00:07:01.468Z,0
2018-03-28T00:08:02.239Z,0
2018-03-28T00:09:02.976Z,0
2018-03-28T00:10:03.768Z,0
2018-03-28T00:11:04.521Z,0
2018-03-28T00:12:05.314Z,0
2018-03-28T00:13:06.042Z,0
2018-03-28T00:14:06.759Z,0
2018-03-28T00:15:07.490Z,0
2018-03-28T00:16:08.307Z,0
2018-03-28T00:17:09.051Z,0
2018-03-28T00:18:09.869Z,0
2018-03-28T00:19:10.651Z,0
2018-03-28T00:20:11.503Z,0
2018-03-28T00:21:12.245Z,0
2018-03-28T00:22:12.962Z,0
2018-03-28T00:23:13.759Z,0
2018-03-28T00:24:14.484Z,0
2018-03-28T00:25:15.215Z,0
2018-03-28T00:26:16.017Z,0
2018-03-28T00:27:16.839Z,0
2018-03-28T00:28:17.638Z,0
2018-03-28T00:29:18.372Z,0
2018-03-28T00:30:19.102Z,0
2018-03-28T00:31:19.906Z,0
2018-03-28T00:32:20.624Z,0
2018-03-28T00:33:21.362Z,0
2018-03-28T00:34:22.105Z,0
2018-03-28T00:35:22.898Z,0
2018-03-28T00:36:23.607Z,0
2018-03-28T00:37:24.330Z,0
2018-03-28T00:38:25.140Z,0
2018-03-28T00:39:25.960Z,0
2018-03-28T00:40:26.755Z,0
2018-03-28T00:41:27.499Z,0
2018-03-28T00:42:28.635Z,0
2018-03-28T00:43:29.448Z,0
2018-03-28T00:44:30.195Z,0
2018-03-28T00:45:30.994Z,0
2018-03-28T00:46:31.724Z,0
2018-03-28T00:47:32.484Z,0
2018-03-28T00:48:33.226Z,0
2018-03-28T00:49:34.020Z,0
2018-03-28T00:50:34.750Z,0
2018-03-28T00:51:35.485Z,0
2018-03-28T00:52:36.224Z,0
2018-03-28T00:53:36.978Z,0
2018-03-28T00:54:37.711Z,0
2018-03-28T00:55:38.512Z,0
2018-03-28T00:56:39.246Z,0
2018-03-28T00:57:40.038Z,0
2018-03-28T00:58:40.775Z,0
2018-03-28T00:59:41.557Z,0
2018-03-28T01:00:42.270Z,0
2018-03-28T01:01:42.991Z,0
2018-03-28T01:02:43.787Z,0
2018-03-28T01:03:44.497Z,0
2018-03-28T01:04:45.229Z,0
2018-03-28T01:05:45.959Z,0
2018-03-28T01:06:46.689Z,0
2018-03-28T01:07:47.447Z,0
2018-03-28T01:08:48.234Z,0
2018-03-28T01:09:49.098Z,0
2018-03-28T01:10:49.863Z,0
2018-03-28T01:11:50.606Z,0
2018-03-28T01:12:51.333Z,0
2018-03-28T01:13:52.062Z,0
2018-03-28T01:14:53.302Z,0
2018-03-28T01:15:54.101Z,0
2018-03-28T01:16:54.879Z,0
2018-03-28T01:17:55.612Z,0
2018-03-28T01:18:56.348Z,0
2018-03-28T01:19:57.096Z,0
2018-03-28T01:20:57.903Z,0
2018-03-28T01:21:58.644Z,0
2018-03-28T01:22:59.352Z,0
2018-03-28T01:24:00.216Z,0
2018-03-28T01:25:00.954Z,0
2018-03-28T01:26:01.782Z,0
2018-03-28T01:27:02.520Z,0
2018-03-28T01:28:03.249Z,0
2018-03-28T01:29:04.028Z,0
2018-03-28T01:30:04.761Z,0
2018-03-28T01:31:05.584Z,0
2018-03-28T01:32:06.328Z,0
2018-03-28T01:33:07.137Z,0
2018-03-28T01:34:07.917Z,0
2018-03-28T01:35:08.659Z,0
2018-03-28T01:36:09.469Z,0
2018-03-28T01:37:10.196Z,0
2018-03-28T01:38:11.007Z,0
2018-03-28T01:39:11.806Z,0
2018-03-28T01:40:12.533Z,0
2018-03-28T01:41:13.338Z,0
2018-03-28T01:42:14.128Z,0
2018-03-28T01:43:14.928Z,0
2018-03-28T01:44:15.724Z,0
2018-03-28T01:45:16.454Z,0
2018-03-28T01:46:17.192Z,0
2018-03-28T01:47:17.918Z,0
2018-03-28T01:48:18.655Z,0
2018-03-28T01:49:19.430Z,0
2018-03-28T01:50:20.165Z,0
2018-03-28T01:51:20.910Z,0
2018-03-28T01:52:21.709Z,0
2018-03-28T01:53:22.444Z,0
2018-03-28T01:54:23.176Z,0
2018-03-28T01:55:23.938Z,0
2018-03-28T01:56:24.688Z,0
2018-03-28T01:57:25.498Z,0
2018-03-28T01:58:26.249Z,0
2018-03-28T01:59:27.022Z,0
2018-03-28T02:00:27.744Z,0
2018-03-28T02:01:28.479Z,0
2018-03-28T02:02:29.204Z,0
2018-03-28T02:03:30.019Z,0
2018-03-28T02:04:30.750Z,0
2018-03-28T02:05:31.556Z,0
2018-03-28T02:06:32.368Z,0
2018-03-28T02:07:33.088Z,0
2018-03-28T02:08:33.821Z,0
2018-03-28T02:09:34.604Z,0
2018-03-28T02:10:35.330Z,0
2018-03-28T02:11:36.058Z,0
2018-03-28T02:12:36.789Z,0
2018-03-28T02:13:37.503Z,0
2018-03-28T02:14:38.294Z,0
2018-03-28T02:15:39.025Z,0
2018-03-28T02:16:39.810Z,0
2018-03-28T02:17:40.600Z,0
2018-03-28T02:18:41.314Z,0
2018-03-28T02:19:42.023Z,0
2018-03-28T02:20:42.755Z,0
2018-03-28T02:21:43.491Z,0
2018-03-28T02:22:44.308Z,0
2018-03-28T02:23:45.049Z,0
2018-03-28T02:24:45.776Z,0
2018-03-28T02:38:17.689Z,0
2018-03-28T02:39:18.392Z,0
2018-03-28T02:40:19.206Z,0
2018-03-28T02:41:20.579Z,0
2018-03-28T02:42:21.301Z,0
2018-03-28T02:43:22.027Z,0
2018-03-28T02:44:22.761Z,0
2018-03-28T02:45:23.568Z,0
2018-03-28T02:46:24.645Z,0
2018-03-28T02:47:25.420Z,0
2018-03-28T02:48:26.224Z,0
2018-03-28T02:49:26.952Z,0
2018-03-28T02:50:27.756Z,0
2018-03-28T02:51:28.471Z,0
2018-03-28T02:52:29.190Z,0
2018-03-28T02:53:29.926Z,0
2018-03-28T02:54:30.670Z,0
2018-03-28T02:55:31.385Z,0
2018-03-28T02:56:32.112Z,0
2018-03-28T02:57:32.831Z,0
2018-03-28T02:58:33.565Z,0
2018-03-28T02:59:34.323Z,0
2018-03-28T03:00:35.024Z,0
2018-03-28T03:01:35.764Z,0
2018-03-28T03:02:36.548Z,0
2018-03-28T03:03:37.686Z,0
2018-03-28T03:04:38.500Z,0
2018-03-28T03:05:39.244Z,0
2018-03-28T03:06:40.016Z,0
2018-03-28T03:07:40.743Z,0
2018-03-28T03:08:41.520Z,0
2018-03-28T03:09:42.257Z,0
2018-03-28T03:10:42.984Z,0
2018-03-28T03:11:43.708Z,0
2018-03-28T03:12:44.444Z,0
2018-03-28T03:13:45.664Z,0
2018-03-28T03:14:46.387Z,0
2018-03-28T03:15:47.121Z,0
2018-03-28T03:16:47.855Z,0
2018-03-28T03:17:48.566Z,0
2018-03-28T03:18:49.378Z,0
2018-03-28T03:19:50.111Z,0
2018-03-28T03:20:50.837Z,0
2018-03-28T03:21:51.564Z,0
2018-03-28T03:22:52.294Z,0
2018-03-28T03:23:53.082Z,0
2018-03-28T03:24:53.807Z,0
2018-03-28T03:25:54.610Z,0
2018-03-28T03:26:55.386Z,0
2018-03-28T03:27:56.206Z,0
2018-03-28T03:28:58.540Z,0
2018-03-28T03:29:59.340Z,0
2018-03-28T03:31:00.110Z,0
2018-03-28T03:32:00.846Z,0
2018-03-28T03:33:01.622Z,0
2018-03-28T03:34:02.481Z,0
2018-03-28T03:35:03.273Z,0
2018-03-28T03:36:04.002Z,0
2018-03-28T03:37:04.923Z,0
2018-03-28T03:38:05.619Z,0
2018-03-28T03:39:06.355Z,0
2018-03-28T03:40:07.449Z,0
2018-03-28T03:41:08.187Z,0
2018-03-28T03:42:08.987Z,0
2018-03-28T03:43:09.730Z,0
2018-03-28T03:44:10.528Z,0
2018-03-28T03:45:11.249Z,0
2018-03-28T03:46:11.993Z,0
2018-03-28T03:47:12.710Z,0
2018-03-28T03:48:13.434Z,0
2018-03-28T03:49:14.249Z,0
2018-03-28T03:50:14.964Z,0
2018-03-28T03:51:15.712Z,0
2018-03-28T03:52:16.543Z,0
2018-03-28T03:53:17.265Z,0
2018-03-28T03:54:18.015Z,0
2018-03-28T03:55:18.736Z,0
2018-03-28T03:56:19.458Z,0
2018-03-28T03:57:20.181Z,0
2018-03-28T03:58:20.903Z,0
2018-03-28T03:59:21.687Z,0
2018-03-28T04:00:22.418Z,0
2018-03-28T04:01:23.139Z,0
2018-03-28T04:02:23.955Z,0
2018-03-28T04:03:24.666Z,0
2018-03-28T04:04:25.380Z,0
2018-03-28T04:05:26.116Z,0
2018-03-28T04:06:26.857Z,0
2018-03-28T04:07:27.589Z,0
2018-03-28T04:08:28.325Z,0
2018-03-28T04:09:29.136Z,0
2018-03-28T04:10:29.876Z,0
2018-03-28T04:11:30.602Z,0
2018-03-28T04:12:31.368Z,0
2018-03-28T04:13:32.137Z,0
2018-03-28T04:14:32.919Z,0
2018-03-28T04:15:33.647Z,0
2018-03-28T04:16:34.462Z,0
2018-03-28T04:17:35.197Z,0
2018-03-28T04:18:36.274Z,0
2018-03-28T04:19:37.064Z,0
2018-03-28T04:20:37.804Z,0
2018-03-28T04:21:38.536Z,0
2018-03-28T04:22:39.282Z,0
2018-03-28T04:23:39.975Z,0
2018-03-28T04:24:41.063Z,0
2018-03-28T04:25:41.807Z,0
2018-03-28T04:26:42.619Z,0
2018-03-28T04:27:43.349Z,0
2018-03-28T04:28:44.075Z,0
2018-03-28T04:29:44.803Z,0
2018-03-28T04:30:45.512Z,0
2018-03-28T04:31:46.240Z,0
2018-03-28T04:32:46.950Z,0
2018-03-28T04:33:47.694Z,0
2018-03-28T04:34:48.531Z,0
2018-03-28T04:35:49.258Z,0
2018-03-28T04:36:50.060Z,0
2018-03-28T04:37:50.790Z,0
2018-03-28T04:38:51.524Z,0
2018-03-28T04:39:52.311Z,0
2018-03-28T04:40:53.094Z,0
2018-03-28T04:41:53.819Z,0
2018-03-28T04:42:54.544Z,0
2018-03-28T04:43:55.270Z,0
2018-03-28T04:44:56.051Z,0
2018-03-28T04:45:56.777Z,0
2018-03-28T04:46:57.501Z,0
2018-03-28T04:47:58.231Z,0
2018-03-28T04:48:58.950Z,0
2018-03-28T04:50:00.047Z,0
2018-03-28T04:51:00.782Z,0
2018-03-28T04:52:01.511Z,0
2018-03-28T04:53:02.243Z,0
2018-03-28T04:54:03.039Z,0
2018-03-28T04:55:03.857Z,0
2018-03-28T04:56:04.582Z,0
2018-03-28T04:57:05.350Z,0
2018-03-28T04:58:06.075Z,0
2018-03-28T04:59:06.807Z,0
2018-03-28T05:00:07.584Z,0
2018-03-28T05:01:08.314Z,0
2018-03-28T05:02:09.040Z,0
2018-03-28T05:03:09.780Z,0
2018-03-28T05:04:10.643Z,0
2018-03-28T05:05:11.368Z,0
2018-03-28T05:06:12.101Z,0
2018-03-28T05:07:12.833Z,5
2018-03-28T05:08:13.566Z,5
2018-03-28T05:09:14.292Z,5
2018-03-28T05:10:15.115Z,5
2018-03-28T05:11:15.790Z,5
2018-03-28T05:12:16.523Z,5
2018-03-28T05:13:17.255Z,5
2018-03-28T05:14:18.063Z,5
2018-03-28T05:15:18.834Z,11
2018-03-28T05:16:19.611Z,11
2018-03-28T05:17:20.410Z,11
2018-03-28T05:18:21.156Z,11
2018-03-28T05:19:21.942Z,11
2018-03-28T05:20:22.659Z,11
2018-03-28T05:21:23.749Z,11
2018-03-28T05:22:24.507Z,16
2018-03-28T05:23:25.319Z,16
2018-03-28T05:24:26.122Z,22
2018-03-28T05:25:26.874Z,22
2018-03-28T05:26:27.646Z,28
2018-03-28T05:27:28.382Z,28
2018-03-28T05:28:29.099Z,33
2018-03-28T05:29:29.828Z,33
2018-03-28T05:30:30.579Z,33
2018-03-28T05:31:31.313Z,33
2018-03-28T05:32:32.045Z,39
2018-03-28T05:33:32.769Z,39
2018-03-28T05:34:33.501Z,45
2018-03-28T05:35:34.256Z,45
2018-03-28T05:36:34.972Z,45
2018-03-28T05:37:35.802Z,50
2018-03-28T05:38:36.554Z,50
2018-03-28T05:39:37.331Z,45
2018-03-28T05:40:38.049Z,45
2018-03-28T05:41:38.785Z,50
2018-03-28T05:42:39.507Z,50
2018-03-28T05:43:40.255Z,50
2018-03-28T05:44:40.997Z,50
2018-03-28T05:45:41.807Z,50
2018-03-28T05:46:42.540Z,50
2018-03-28T05:47:43.310Z,50
2018-03-28T05:48:44.054Z,50
2018-03-28T05:49:44.860Z,45
2018-03-28T05:50:45.600Z,45
2018-03-28T05:51:46.336Z,50
2018-03-28T05:52:47.130Z,56
2018-03-28T05:53:47.936Z,61
2018-03-28T05:54:48.678Z,61
2018-03-28T05:55:49.418Z,67
2018-03-28T05:56:50.456Z,67
2018-03-28T05:57:51.123Z,67
2018-03-28T05:58:51.862Z,61
2018-03-28T05:59:52.595Z,61
2018-03-28T06:00:53.309Z,61
2018-03-28T06:01:54.073Z,56
2018-03-28T06:02:54.767Z,50
2018-03-28T06:03:55.518Z,45
2018-03-28T06:04:56.644Z,39
2018-03-28T06:05:57.378Z,33
2018-03-28T06:06:58.105Z,33
2018-03-28T06:07:58.916Z,33
2018-03-28T06:08:59.670Z,33
2018-03-28T06:10:00.757Z,33
2018-03-28T06:11:01.565Z,33
2018-03-28T06:12:02.338Z,39
2018-03-28T06:13:03.100Z,45
2018-03-28T06:14:03.810Z,45
2018-03-28T06:15:04.545Z,50
2018-03-28T06:16:05.365Z,61
2018-03-28T06:17:06.096Z,67
2018-03-28T06:18:06.838Z,67
2018-03-28T06:19:07.619Z,73
2018-03-28T06:20:08.447Z,67
2018-03-28T06:21:09.279Z,67
2018-03-28T06:22:10.114Z,67
2018-03-28T06:23:10.793Z,73
2018-03-28T06:24:11.585Z,73
2018-03-28T06:25:12.262Z,78
2018-03-28T06:26:13.049Z,84
2018-03-28T06:27:13.825Z,84
2018-03-28T06:28:14.568Z,90
2018-03-28T06:29:15.340Z,101
2018-03-28T06:30:16.092Z,106
2018-03-28T06:31:16.882Z,118
2018-03-28T06:32:17.688Z,140
2018-03-28T06:33:18.419Z,163
2018-03-28T06:34:19.166Z,168
2018-03-28T06:35:19.888Z,157
2018-03-28T06:36:20.609Z,163
2018-03-28T06:37:21.352Z,180
2018-03-28T06:38:22.110Z,185
2018-03-28T06:39:22.852Z,196
2018-03-28T06:40:23.567Z,208
2018-03-28T06:41:24.301Z,213
2018-03-28T06:42:25.102Z,208
2018-03-28T06:43:25.919Z,213
2018-03-28T06:44:26.650Z,208
2018-03-28T06:45:27.368Z,213
2018-03-28T06:46:28.106Z,213
2018-03-28T06:47:28.872Z,213
2018-03-28T06:48:29.976Z,202
2018-03-28T06:49:30.783Z,202
2018-03-28T06:50:31.503Z,202
2018-03-28T06:51:32.324Z,202
2018-03-28T06:52:33.056Z,208
2018-03-28T06:53:33.942Z,219
2018-03-28T06:54:34.727Z,225
2018-03-28T06:55:35.467Z,236
2018-03-28T06:56:36.206Z,253
2018-03-28T06:57:36.935Z,258
2018-03-28T06:58:37.687Z,264
2018-03-28T06:59:38.493Z,275
2018-03-28T07:00:39.195Z,281
2018-03-28T07:01:39.941Z,292
2018-03-28T07:02:40.748Z,315
2018-03-28T07:03:41.485Z,331
2018-03-28T07:04:42.251Z,348
2018-03-28T07:05:42.993Z,360
2018-03-28T07:06:43.791Z,376
2018-03-28T07:07:44.667Z,371
2018-03-28T07:08:45.394Z,376
2018-03-28T07:09:46.135Z,382
2018-03-28T07:10:46.886Z,382
2018-03-28T07:11:47.676Z,405
2018-03-28T07:12:48.465Z,444
2018-03-28T07:13:49.263Z,495
2018-03-28T07:14:49.993Z,540
2018-03-28T07:15:50.733Z,590
2018-03-28T07:16:51.726Z,601
2018-03-28T07:17:52.449Z,601
2018-03-28T07:18:53.202Z,585
2018-03-28T07:19:53.939Z,556
2018-03-28T07:20:54.663Z,556
2018-03-28T07:21:55.398Z,534
2018-03-28T07:22:57.104Z,483
2018-03-28T07:23:58.243Z,450
2018-03-28T07:24:58.976Z,410
2018-03-28T07:25:59.705Z,382
2018-03-28T07:27:00.446Z,382
2018-03-28T07:28:01.237Z,388
2018-03-28T07:29:02.027Z,399
2018-03-28T07:30:02.756Z,438
2018-03-28T07:31:03.492Z,455
2018-03-28T07:32:04.376Z,416
2018-03-28T07:33:05.063Z,405
2018-03-28T07:34:05.792Z,354
2018-03-28T07:35:07.218Z,331
2018-03-28T07:36:07.999Z,320
2018-03-28T07:37:08.788Z,320
2018-03-28T07:38:09.525Z,315
2018-03-28T07:39:10.261Z,309
2018-03-28T07:40:11.010Z,298
2018-03-28T07:41:11.748Z,303
2018-03-28T07:42:12.867Z,281
2018-03-28T07:43:13.685Z,281
2018-03-28T07:44:14.477Z,286
2018-03-28T07:45:15.215Z,286
2018-03-28T07:46:15.944Z,292
2018-03-28T07:47:16.725Z,337
2018-03-28T07:48:17.538Z,331
2018-03-28T07:49:18.252Z,303
2018-03-28T07:50:19.042Z,286
2018-03-28T07:51:19.881Z,270
2018-03-28T07:52:20.669Z,270
2018-03-28T07:53:21.406Z,258
2018-03-28T07:54:22.187Z,253
2018-03-28T07:55:22.928Z,281
2018-03-28T07:56:23.651Z,309
2018-03-28T07:57:24.450Z,337
2018-03-28T07:58:25.182Z,331
2018-03-28T07:59:25.918Z,331
2018-03-28T08:00:26.642Z,343
2018-03-28T08:01:27.433Z,348
2018-03-28T08:02:28.156Z,337
2018-03-28T08:03:28.909Z,320
2018-03-28T08:04:29.690Z,286
2018-03-28T08:05:30.435Z,309
2018-03-28T08:06:31.214Z,281
2018-03-28T08:07:31.961Z,275
2018-03-28T08:08:32.688Z,247
2018-03-28T08:09:33.447Z,258
2018-03-28T08:10:34.122Z,219
2018-03-28T08:11:35.005Z,202
2018-03-28T08:12:35.806Z,185
2018-03-28T08:13:36.540Z,196
2018-03-28T08:14:37.347Z,247
2018-03-28T08:15:38.092Z,230
2018-03-28T08:16:38.819Z,236
2018-03-28T08:17:39.554Z,241
2018-03-28T08:18:40.295Z,236
2018-03-28T08:19:41.033Z,286
2018-03-28T08:20:41.760Z,354
2018-03-28T08:21:42.526Z,421
2018-03-28T08:22:43.397Z,399
2018-03-28T08:23:44.133Z,393
2018-03-28T08:24:44.913Z,320
2018-03-28T08:25:45.771Z,225
2018-03-28T08:26:46.457Z,230
2018-03-28T08:27:47.543Z,219
2018-03-28T08:28:48.267Z,225
2018-03-28T08:29:49.002Z,219
2018-03-28T08:30:49.733Z,225
2018-03-28T08:31:50.490Z,236
2018-03-28T08:32:51.663Z,281
2018-03-28T08:33:52.395Z,270
2018-03-28T08:34:53.164Z,281
2018-03-28T08:35:53.894Z,286
2018-03-28T08:36:54.635Z,275
2018-03-28T08:37:55.376Z,315
2018-03-28T08:38:56.169Z,343
2018-03-28T08:39:56.902Z,286
2018-03-28T08:40:57.635Z,241
2018-03-28T08:41:58.390Z,241
2018-03-28T08:42:59.103Z,270
2018-03-28T08:43:59.837Z,298
2018-03-28T08:45:00.635Z,286
2018-03-28T08:46:01.422Z,264
2018-03-28T08:47:02.147Z,241
2018-03-28T08:48:02.868Z,270
2018-03-28T08:49:03.586Z,292
2018-03-28T08:50:04.328Z,281
2018-03-28T08:51:05.103Z,286
2018-03-28T08:52:05.839Z,337
2018-03-28T08:53:06.656Z,365
2018-03-28T08:54:07.382Z,348
2018-03-28T08:55:08.127Z,331
2018-03-28T08:56:09.001Z,331
2018-03-28T08:57:09.743Z,315
2018-03-28T08:58:10.528Z,315
2018-03-28T08:59:11.255Z,354
2018-03-28T09:00:12.062Z,376
2018-03-28T09:01:13.153Z,331
2018-03-28T09:02:13.874Z,320
2018-03-28T09:03:14.624Z,331
2018-03-28T09:04:15.435Z,331
2018-03-28T09:05:16.170Z,354
2018-03-28T09:06:16.975Z,331
2018-03-28T09:07:18.055Z,298
2018-03-28T09:08:18.816Z,298
2018-03-28T09:09:19.552Z,326
2018-03-28T09:10:20.263Z,365
2018-03-28T09:11:21.008Z,326
2018-03-28T09:12:21.756Z,326
2018-03-28T09:13:22.493Z,337
2018-03-28T09:14:23.222Z,331
2018-03-28T09:15:23.958Z,354
2018-03-28T09:16:24.696Z,354
2018-03-28T09:17:25.431Z,399
2018-03-28T09:18:26.238Z,388
2018-03-28T09:19:26.980Z,360
2018-03-28T09:20:27.766Z,365
2018-03-28T09:21:28.561Z,354
2018-03-28T09:22:29.343Z,376
2018-03-28T09:23:30.113Z,399
2018-03-28T09:24:30.870Z,410
2018-03-28T09:25:31.625Z,444
2018-03-28T09:26:32.369Z,495
2018-03-28T09:27:33.158Z,511
2018-03-28T09:28:33.887Z,489
2018-03-28T09:29:34.747Z,466
2018-03-28T09:30:35.488Z,472
2018-03-28T09:31:36.229Z,450
2018-03-28T09:32:36.955Z,388
2018-03-28T09:33:37.778Z,433
2018-03-28T09:34:38.630Z,450
2018-03-28T09:35:39.365Z,416
2018-03-28T09:36:40.164Z,517
2018-03-28T09:37:40.967Z,590
2018-03-28T09:38:41.772Z,663
2018-03-28T09:39:42.572Z,731
2018-03-28T09:40:43.318Z,585
2018-03-28T09:41:44.049Z,607
2018-03-28T09:42:44.857Z,506
2018-03-28T09:43:45.594Z,427
2018-03-28T09:44:46.379Z,433
2018-03-28T09:45:47.188Z,343
2018-03-28T09:46:47.946Z,326
2018-03-28T09:47:48.746Z,360
2018-03-28T09:48:49.489Z,343
2018-03-28T09:49:50.237Z,354
2018-03-28T09:50:50.967Z,405
2018-03-28T09:51:51.713Z,303
2018-03-28T09:52:52.461Z,270
2018-03-28T09:53:53.190Z,320
2018-03-28T09:54:53.999Z,320
2018-03-28T09:55:54.829Z,337
2018-03-28T09:56:55.572Z,382
2018-03-28T09:57:56.306Z,438
2018-03-28T09:58:57.164Z,495
2018-03-28T09:59:57.957Z,523
2018-03-28T10:00:58.757Z,416
2018-03-28T10:01:59.564Z,309
2018-03-28T10:03:00.284Z,298
2018-03-28T10:04:01.048Z,382
2018-03-28T10:05:01.775Z,461
2018-03-28T10:06:02.507Z,438
2018-03-28T10:07:03.229Z,365
2018-03-28T10:08:04.051Z,343
2018-03-28T10:09:04.905Z,376
2018-03-28T10:10:05.639Z,405
2018-03-28T10:11:06.468Z,416
2018-03-28T10:12:07.204Z,444
2018-03-28T10:13:07.931Z,365
2018-03-28T10:14:08.667Z,230
2018-03-28T10:15:09.431Z,230
2018-03-28T10:16:10.235Z,270
2018-03-28T10:17:11.401Z,275
2018-03-28T10:18:12.138Z,405
2018-03-28T10:19:12.898Z,511
2018-03-28T10:20:13.693Z,438
2018-03-28T10:21:14.500Z,343
2018-03-28T10:22:15.243Z,303
2018-03-28T10:23:15.979Z,315
2018-03-28T10:24:16.726Z,438
2018-03-28T10:25:17.464Z,483
2018-03-28T10:26:18.212Z,416
2018-03-28T10:27:19.285Z,399
2018-03-28T10:28:20.014Z,376
2018-03-28T10:29:20.753Z,326
2018-03-28T10:30:21.473Z,264
2018-03-28T10:31:22.222Z,253
2018-03-28T10:32:23.023Z,275
2018-03-28T10:33:23.772Z,320
2018-03-28T10:34:24.504Z,444
2018-03-28T10:35:25.248Z,573
2018-03-28T10:36:26.051Z,736
2018-03-28T10:37:26.797Z,916
2018-03-28T10:38:27.546Z,939
2018-03-28T10:39:28.255Z,973
2018-03-28T10:40:29.044Z,1029
2018-03-28T10:41:29.843Z,1096
2018-03-28T10:42:30.576Z,1018
2018-03-28T10:43:31.314Z,928
2018-03-28T10:44:32.072Z,956
2018-03-28T10:45:32.817Z,933
2018-03-28T10:46:33.666Z,922
2018-03-28T10:47:34.822Z,916
2018-03-28T10:48:35.565Z,956
2018-03-28T10:49:36.286Z,1029
2018-03-28T10:50:37.052Z,990
2018-03-28T10:51:37.863Z,905
2018-03-28T10:52:38.709Z,900
2018-03-28T10:53:39.861Z,832
2018-03-28T10:54:40.597Z,787
2018-03-28T10:55:41.334Z,928
2018-03-28T10:56:42.139Z,1068
2018-03-28T10:57:42.913Z,1125
2018-03-28T10:58:43.715Z,1096
2018-03-28T10:59:44.476Z,1023
2018-03-28T11:00:45.293Z,961
2018-03-28T11:01:46.020Z,967
2018-03-28T11:02:46.754Z,933
2018-03-28T11:03:47.497Z,950
2018-03-28T11:04:48.291Z,1018
2018-03-28T11:05:49.009Z,1085
2018-03-28T11:06:49.806Z,1158
2018-03-28T11:07:50.633Z,1170
2018-03-28T11:08:51.449Z,1265
2018-03-28T11:09:52.195Z,1248
2018-03-28T11:10:53.014Z,1316
2018-03-28T11:11:53.738Z,1288
2018-03-28T11:12:54.534Z,1333
2018-03-28T11:13:55.277Z,1350
2018-03-28T11:14:56.047Z,1333
2018-03-28T11:15:56.844Z,1260
2018-03-28T11:16:57.613Z,1186
2018-03-28T11:17:58.414Z,1085
2018-03-28T11:18:59.276Z,1018
2018-03-28T11:20:00.065Z,967
2018-03-28T11:21:00.868Z,956
2018-03-28T11:22:01.601Z,1023
2018-03-28T11:23:02.349Z,1063
2018-03-28T11:24:03.108Z,1040
2018-03-28T11:25:03.896Z,990
2018-03-28T11:26:05.493Z,905
2018-03-28T11:27:06.202Z,849
2018-03-28T11:28:07.023Z,815
2018-03-28T11:29:07.798Z,731
2018-03-28T11:30:08.479Z,714
2018-03-28T11:31:09.217Z,669
2018-03-28T11:32:09.963Z,675
2018-03-28T11:33:10.701Z,714
2018-03-28T11:34:11.464Z,765
2018-03-28T11:35:12.287Z,838
2018-03-28T11:36:13.086Z,950
2018-03-28T11:37:13.887Z,1046
2018-03-28T11:38:14.652Z,1102
2018-03-28T11:39:15.396Z,1125
2018-03-28T11:40:16.152Z,1057
2018-03-28T11:41:16.934Z,995
2018-03-28T11:42:17.725Z,984
2018-03-28T11:43:18.480Z,945
2018-03-28T11:44:19.266Z,967
2018-03-28T11:45:20.002Z,995
2018-03-28T11:46:20.750Z,1006
2018-03-28T11:47:21.492Z,973
2018-03-28T11:48:22.369Z,945
2018-03-28T11:49:23.113Z,883
2018-03-28T11:50:23.852Z,832
2018-03-28T11:51:24.592Z,781
2018-03-28T11:52:25.407Z,765
2018-03-28T11:53:26.133Z,736
2018-03-28T11:54:26.894Z,725
2018-03-28T11:55:27.753Z,748
2018-03-28T11:56:28.500Z,810
2018-03-28T11:57:29.246Z,860
2018-03-28T11:58:29.997Z,888
2018-03-28T11:59:30.726Z,877
2018-03-28T12:00:31.584Z,810
2018-03-28T12:01:32.374Z,720
2018-03-28T12:02:33.114Z,663
2018-03-28T12:03:33.924Z,652
2018-03-28T12:04:34.694Z,675
2018-03-28T12:05:35.481Z,720
2018-03-28T12:06:36.304Z,776
2018-03-28T12:07:37.069Z,804
2018-03-28T12:08:37.849Z,793
2018-03-28T12:09:38.604Z,736
2018-03-28T12:10:40.392Z,697
2018-03-28T12:11:42.340Z,658
2018-03-28T12:12:43.825Z,618
2018-03-28T12:13:44.508Z,551
2018-03-28T12:14:45.245Z,489
2018-03-28T12:15:46.093Z,450
2018-03-28T12:16:46.885Z,416
2018-03-28T12:17:47.591Z,365
2018-03-28T12:18:48.396Z,292
2018-03-28T12:19:49.193Z,270
2018-03-28T12:20:50.001Z,303
2018-03-28T12:21:50.726Z,343
2018-03-28T12:22:51.527Z,337
2018-03-28T12:23:52.256Z,298
2018-03-28T12:24:52.997Z,241
2018-03-28T12:25:53.818Z,264
2018-03-28T12:26:54.571Z,286
2018-03-28T12:27:55.325Z,309
2018-03-28T12:28:56.125Z,326
2018-03-28T12:29:56.861Z,343
2018-03-28T12:30:57.607Z,410
2018-03-28T12:31:58.401Z,472
2018-03-28T12:32:59.137Z,511
2018-03-28T12:33:59.886Z,568
2018-03-28T12:35:00.713Z,613
2018-03-28T12:36:01.452Z,658
2018-03-28T12:37:02.205Z,691
2018-03-28T12:38:02.947Z,708
2018-03-28T12:39:03.681Z,703
2018-03-28T12:40:04.420Z,703
2018-03-28T12:41:05.226Z,703
2018-03-28T12:42:06.054Z,708
2018-03-28T12:43:06.732Z,720
2018-03-28T12:44:07.466Z,731
2018-03-28T12:45:08.222Z,753
2018-03-28T12:46:08.951Z,753
2018-03-28T12:47:09.790Z,759
2018-03-28T12:48:10.583Z,753
2018-03-28T12:49:11.323Z,748
2018-03-28T12:50:12.076Z,731
2018-03-28T12:51:12.839Z,720
2018-03-28T12:52:13.730Z,708
2018-03-28T12:53:14.413Z,697
2018-03-28T12:54:15.153Z,697
2018-03-28T12:55:15.917Z,703
2018-03-28T12:56:16.636Z,714
2018-03-28T12:57:17.451Z,720
2018-03-28T12:58:18.305Z,725
2018-03-28T12:59:19.104Z,725
2018-03-28T13:00:19.812Z,731
2018-03-28T13:01:20.556Z,736
2018-03-28T13:02:21.284Z,748
2018-03-28T13:03:22.031Z,753
2018-03-28T13:04:22.822Z,765
2018-03-28T13:05:23.574Z,776
2018-03-28T13:06:24.318Z,793
2018-03-28T13:07:25.057Z,804
2018-03-28T13:08:25.796Z,810
2018-03-28T13:09:26.587Z,810
2018-03-28T13:10:27.334Z,804
2018-03-28T13:11:28.139Z,793
2018-03-28T13:12:28.892Z,781
2018-03-28T13:13:29.614Z,765
2018-03-28T13:14:30.348Z,742
2018-03-28T13:15:31.141Z,703
2018-03-28T13:16:31.955Z,663
2018-03-28T13:17:32.684Z,624
2018-03-28T13:18:33.517Z,590
2018-03-28T13:19:34.270Z,551
2018-03-28T13:20:35.071Z,511
2018-03-28T13:21:35.872Z,466
2018-03-28T13:22:36.680Z,433
2018-03-28T13:23:37.414Z,410
2018-03-28T13:24:38.225Z,376
2018-03-28T13:25:38.953Z,326
2018-03-28T13:26:40.068Z,281
2018-03-28T13:27:40.864Z,236
2018-03-28T13:28:41.670Z,196
2018-03-28T13:29:42.465Z,174
2018-03-28T13:30:43.263Z,174
2018-03-28T13:31:44.090Z,196
2018-03-28T13:32:44.889Z,213
2018-03-28T13:33:45.668Z,230
2018-03-28T13:34:46.406Z,258
2018-03-28T13:35:47.139Z,292
2018-03-28T13:36:47.963Z,331
2018-03-28T13:37:48.768Z,371
2018-03-28T13:38:49.601Z,410
2018-03-28T13:39:50.377Z,438
2018-03-28T13:40:51.121Z,461
2018-03-28T13:41:51.900Z,489
2018-03-28T13:42:52.973Z,495
2018-03-28T13:43:53.766Z,500
2018-03-28T13:44:54.608Z,495
2018-03-28T13:45:55.414Z,495
2018-03-28T13:46:56.151Z,495
2018-03-28T13:47:56.942Z,495
2018-03-28T13:48:57.675Z,489
2018-03-28T13:49:58.469Z,478
2018-03-28T13:50:59.282Z,461
2018-03-28T13:52:00.016Z,450
2018-03-28T13:53:00.840Z,433
2018-03-28T13:54:01.572Z,405
2018-03-28T13:55:02.351Z,371
2018-03-28T13:56:03.169Z,343
2018-03-28T13:57:03.917Z,326
2018-03-28T13:58:04.648Z,309
2018-03-28T13:59:05.502Z,292
2018-03-28T14:00:06.297Z,281
2018-03-28T14:01:07.441Z,275
2018-03-28T14:02:08.180Z,275
2018-03-28T14:03:08.912Z,275
2018-03-28T14:04:09.708Z,275
2018-03-28T14:05:10.460Z,264
2018-03-28T14:06:11.808Z,253
2018-03-28T14:07:12.760Z,247
2018-03-28T14:08:13.561Z,241
2018-03-28T14:09:14.297Z,241
2018-03-28T14:10:15.027Z,247
2018-03-28T14:11:15.770Z,253
2018-03-28T14:12:16.522Z,258
2018-03-28T14:13:17.334Z,270
2018-03-28T14:14:18.203Z,281
2018-03-28T14:15:18.949Z,286
2018-03-28T14:16:19.743Z,292
2018-03-28T14:17:20.558Z,303
2018-03-28T14:18:21.298Z,303
2018-03-28T14:19:22.473Z,292
2018-03-28T14:20:23.152Z,281
2018-03-28T14:21:23.884Z,281
2018-03-28T14:22:24.631Z,275
2018-03-28T14:23:25.438Z,264
2018-03-28T14:24:26.215Z,253
2018-03-28T14:25:27.013Z,253
2018-03-28T14:26:27.807Z,253
2018-03-28T14:27:28.610Z,247
2018-03-28T14:28:29.373Z,241
2018-03-28T14:29:30.090Z,225
2018-03-28T14:30:30.821Z,202
2018-03-28T14:31:31.559Z,180
2018-03-28T14:32:32.265Z,168